sensor_id;sensor_type;location;lat;lon;timestamp;pressure;altitude;pressure_sealevel;temperature;humidity
55191;BME280;41070;50.360;18.742;2023-04-09T08:58:44;99448.33;;;8.76;90.00
55191;BME280;41070;50.360;18.742;2023-04-09T09:01:26;99447.67;;;8.83;89.44
55191;BME280;41070;50.360;18.742;2023-04-09T09:03:54;99449.20;;;8.97;89.28
55191;BME280;41070;50.360;18.742;2023-04-09T09:06:22;99451.46;;;8.94;88.10
55191;BME280;41070;50.360;18.742;2023-04-09T09:09:06;99452.20;;;8.77;88.10
55191;BME280;41070;50.360;18.742;2023-04-09T09:11:38;99455.52;;;8.78;88.77
55191;BME280;41070;50.360;18.742;2023-04-09T09:14:16;99454.61;;;8.88;89.00
55191;BME280;41070;50.360;18.742;2023-04-09T09:17:01;99458.34;;;8.95;89.01
55191;BME280;41070;50.360;18.742;2023-04-09T09:19:30;99463.86;;;9.01;88.79
55191;BME280;41070;50.360;18.742;2023-04-09T09:22:11;99461.41;;;9.03;88.56
55191;BME280;41070;50.360;18.742;2023-04-09T09:24:51;99463.05;;;8.96;88.56
55191;BME280;41070;50.360;18.742;2023-04-09T09:27:30;99464.27;;;8.96;88.87
55191;BME280;41070;50.360;18.742;2023-04-09T09:29:57;99460.34;;;8.93;88.36
55191;BME280;41070;50.360;18.742;2023-04-09T09:32:23;99459.04;;;8.96;88.52
55191;BME280;41070;50.360;18.742;2023-04-09T09:35:04;99460.03;;;9.03;88.48
55191;BME280;41070;50.360;18.742;2023-04-09T09:37:31;99459.28;;;9.06;88.30
55191;BME280;41070;50.360;18.742;2023-04-09T09:39:59;99460.10;;;9.08;88.56
55191;BME280;41070;50.360;18.742;2023-04-09T09:42:25;99457.35;;;9.18;88.64
55191;BME280;41070;50.360;18.742;2023-04-09T09:44:53;99456.30;;;9.23;88.08
55191;BME280;41070;50.360;18.742;2023-04-09T09:47:20;99459.08;;;9.30;88.10
55191;BME280;41070;50.360;18.742;2023-04-09T09:49:48;99453.46;;;9.40;87.76
55191;BME280;41070;50.360;18.742;2023-04-09T09:52:23;99451.80;;;9.45;87.30
55191;BME280;41070;50.360;18.742;2023-04-09T09:54:51;99450.93;;;9.58;87.39
55191;BME280;41070;50.360;18.742;2023-04-09T09:57:19;99450.74;;;9.71;87.21
55191;BME280;41070;50.360;18.742;2023-04-09T09:59:52;99450.52;;;9.84;86.86
55191;BME280;41070;50.360;18.742;2023-04-09T10:02:21;99447.73;;;9.94;86.31
55191;BME280;41070;50.360;18.742;2023-04-09T10:04:49;99447.66;;;9.98;85.36
55191;BME280;41070;50.360;18.742;2023-04-09T10:07:16;99446.63;;;9.93;85.76
55191;BME280;41070;50.360;18.742;2023-04-09T10:09:49;99448.98;;;9.97;85.44
55191;BME280;41070;50.360;18.742;2023-04-09T10:12:20;99446.75;;;10.03;85.53
55191;BME280;41070;50.360;18.742;2023-04-09T10:14:50;99446.59;;;10.08;85.52
55191;BME280;41070;50.360;18.742;2023-04-09T10:17:18;99446.34;;;10.10;85.41
55191;BME280;41070;50.360;18.742;2023-04-09T10:20:08;99445.18;;;10.15;85.38
55191;BME280;41070;50.360;18.742;2023-04-09T10:22:35;99447.39;;;10.18;84.93
55191;BME280;41070;50.360;18.742;2023-04-09T10:25:10;99443.00;;;10.20;84.56
55191;BME280;41070;50.360;18.742;2023-04-09T10:27:36;99446.73;;;10.20;84.47
55191;BME280;41070;50.360;18.742;2023-04-09T10:30:03;99443.30;;;10.25;84.69
55191;BME280;41070;50.360;18.742;2023-04-09T10:32:35;99441.79;;;10.25;84.09
55191;BME280;41070;50.360;18.742;2023-04-09T10:35:05;99440.12;;;10.26;84.14
55191;BME280;41070;50.360;18.742;2023-04-09T10:37:31;99441.70;;;10.32;84.36
55191;BME280;41070;50.360;18.742;2023-04-09T10:40:02;99438.85;;;10.39;84.69
55191;BME280;41070;50.360;18.742;2023-04-09T10:42:37;99436.26;;;10.44;84.54
55191;BME280;41070;50.360;18.742;2023-04-09T10:45:10;99433.73;;;10.51;84.13
55191;BME280;41070;50.360;18.742;2023-04-09T10:47:39;99439.78;;;10.53;83.72
55191;BME280;41070;50.360;18.742;2023-04-09T10:52:45;99438.27;;;10.53;83.20
55191;BME280;41070;50.360;18.742;2023-04-09T10:55:47;99438.73;;;10.44;83.20
55191;BME280;41070;50.360;18.742;2023-04-09T10:58:16;99441.00;;;10.37;83.36
55191;BME280;41070;50.360;18.742;2023-04-09T11:00:50;99437.96;;;10.21;83.12
55191;BME280;41070;50.360;18.742;2023-04-09T11:03:28;99437.05;;;10.05;83.26
55191;BME280;41070;50.360;18.742;2023-04-09T11:06:05;99433.60;;;9.94;83.70
55191;BME280;41070;50.360;18.742;2023-04-09T11:08:36;99433.88;;;9.93;84.18
55191;BME280;41070;50.360;18.742;2023-04-09T11:11:05;99432.68;;;9.90;83.58
55191;BME280;41070;50.360;18.742;2023-04-09T11:13:34;99433.40;;;9.89;83.94
55191;BME280;41070;50.360;18.742;2023-04-09T11:16:03;99433.35;;;9.84;83.47
55191;BME280;41070;50.360;18.742;2023-04-09T11:18:31;99431.65;;;9.77;83.43
55191;BME280;41070;50.360;18.742;2023-04-09T11:21:01;99432.06;;;9.74;83.63
55191;BME280;41070;50.360;18.742;2023-04-09T11:23:28;99429.58;;;9.73;83.34
55191;BME280;41070;50.360;18.742;2023-04-09T11:25:55;99430.09;;;9.69;83.37
55191;BME280;41070;50.360;18.742;2023-04-09T11:28:22;99430.84;;;9.65;83.27
55191;BME280;41070;50.360;18.742;2023-04-09T11:30:52;99433.23;;;9.65;83.29
55191;BME280;41070;50.360;18.742;2023-04-09T11:33:19;99428.58;;;9.67;83.35
55191;BME280;41070;50.360;18.742;2023-04-09T11:35:45;99429.90;;;9.72;83.29
55191;BME280;41070;50.360;18.742;2023-04-09T11:38:12;99429.14;;;9.77;83.19
55191;BME280;41070;50.360;18.742;2023-04-09T11:40:43;99428.68;;;9.82;83.33
55191;BME280;41070;50.360;18.742;2023-04-09T11:43:12;99434.90;;;9.89;82.95
55191;BME280;41070;50.360;18.742;2023-04-09T11:45:40;99436.31;;;9.93;83.10
55191;BME280;41070;50.360;18.742;2023-04-09T11:48:07;99433.87;;;9.91;82.50
55191;BME280;41070;50.360;18.742;2023-04-09T11:50:35;99433.33;;;9.90;82.52
55191;BME280;41070;50.360;18.742;2023-04-09T11:53:19;99431.80;;;9.87;82.39
55191;BME280;41070;50.360;18.742;2023-04-09T11:55:51;99432.03;;;9.79;81.97
55191;BME280;41070;50.360;18.742;2023-04-09T11:58:24;99434.08;;;9.75;81.82
55191;BME280;41070;50.360;18.742;2023-04-09T12:00:52;99434.23;;;9.73;81.95
55191;BME280;41070;50.360;18.742;2023-04-09T12:03:26;99433.85;;;9.72;82.03
55191;BME280;41070;50.360;18.742;2023-04-09T12:05:53;99432.25;;;9.70;81.75
55191;BME280;41070;50.360;18.742;2023-04-09T12:08:22;99433.48;;;9.70;81.82
55191;BME280;41070;50.360;18.742;2023-04-09T12:10:50;99431.79;;;9.71;81.86
55191;BME280;41070;50.360;18.742;2023-04-09T12:13:18;99435.71;;;9.77;82.30
55191;BME280;41070;50.360;18.742;2023-04-09T12:15:48;99435.73;;;9.83;82.11
55191;BME280;41070;50.360;18.742;2023-04-09T12:18:14;99433.02;;;9.89;81.61
55191;BME280;41070;50.360;18.742;2023-04-09T12:20:45;99437.80;;;9.92;81.33
55191;BME280;41070;50.360;18.742;2023-04-09T12:23:15;99439.83;;;9.99;81.64
55191;BME280;41070;50.360;18.742;2023-04-09T12:25:43;99441.30;;;10.04;81.77
55191;BME280;41070;50.360;18.742;2023-04-09T12:28:14;99439.02;;;10.10;81.67
55191;BME280;41070;50.360;18.742;2023-04-09T12:30:43;99436.88;;;10.17;81.63
55191;BME280;41070;50.360;18.742;2023-04-09T12:33:10;99438.69;;;10.22;81.26
55191;BME280;41070;50.360;18.742;2023-04-09T12:35:36;99435.18;;;10.30;81.54
55191;BME280;41070;50.360;18.742;2023-04-09T12:38:02;99435.96;;;10.36;81.34
55191;BME280;41070;50.360;18.742;2023-04-09T12:40:29;99437.34;;;10.41;81.31
55191;BME280;41070;50.360;18.742;2023-04-09T12:42:56;99436.66;;;10.49;80.50
55191;BME280;41070;50.360;18.742;2023-04-09T12:45:22;99439.42;;;10.55;80.18
55191;BME280;41070;50.360;18.742;2023-04-09T12:47:48;99437.21;;;10.65;79.26
55191;BME280;41070;50.360;18.742;2023-04-09T12:50:14;99435.89;;;10.72;78.89
55191;BME280;41070;50.360;18.742;2023-04-09T12:52:41;99436.30;;;10.73;78.89
55191;BME280;41070;50.360;18.742;2023-04-09T12:55:08;99436.11;;;10.78;78.82
55191;BME280;41070;50.360;18.742;2023-04-09T12:57:36;99431.15;;;10.92;78.72
55191;BME280;41070;50.360;18.742;2023-04-09T13:00:03;99425.75;;;11.11;79.09
55191;BME280;41070;50.360;18.742;2023-04-09T13:02:30;99425.13;;;11.25;77.42
55191;BME280;41070;50.360;18.742;2023-04-09T13:04:56;99422.48;;;11.32;77.44
55191;BME280;41070;50.360;18.742;2023-04-09T13:07:25;99419.40;;;11.40;77.36
55191;BME280;41070;50.360;18.742;2023-04-09T13:10:01;99420.35;;;11.53;76.80
55191;BME280;41070;50.360;18.742;2023-04-09T13:12:53;99418.23;;;11.65;76.08
55191;BME280;41070;50.360;18.742;2023-04-09T13:15:19;99417.80;;;11.81;76.40
55191;BME280;41070;50.360;18.742;2023-04-09T13:17:45;99416.97;;;11.75;74.30
55191;BME280;41070;50.360;18.742;2023-04-09T13:20:17;99417.61;;;11.62;74.71
55191;BME280;41070;50.360;18.742;2023-04-09T13:22:44;99414.48;;;11.56;75.21
55191;BME280;41070;50.360;18.742;2023-04-09T13:25:14;99414.42;;;11.48;75.98
55191;BME280;41070;50.360;18.742;2023-04-09T13:27:40;99415.97;;;11.40;76.08
55191;BME280;41070;50.360;18.742;2023-04-09T13:30:07;99414.09;;;11.31;76.07
55191;BME280;41070;50.360;18.742;2023-04-09T13:32:42;99416.09;;;11.20;75.77
55191;BME280;41070;50.360;18.742;2023-04-09T13:35:11;99415.52;;;11.15;76.17
55191;BME280;41070;50.360;18.742;2023-04-09T13:37:43;99414.56;;;11.16;76.61
55191;BME280;41070;50.360;18.742;2023-04-09T13:40:13;99414.11;;;11.13;76.34
55191;BME280;41070;50.360;18.742;2023-04-09T13:42:39;99414.66;;;11.09;76.20
55191;BME280;41070;50.360;18.742;2023-04-09T13:45:05;99415.79;;;11.08;76.19
55191;BME280;41070;50.360;18.742;2023-04-09T13:47:40;99411.92;;;11.15;75.89
55191;BME280;41070;50.360;18.742;2023-04-09T13:50:08;99408.38;;;11.31;75.53
55191;BME280;41070;50.360;18.742;2023-04-09T13:52:35;99410.68;;;11.40;75.27
55191;BME280;41070;50.360;18.742;2023-04-09T13:55:02;99413.54;;;11.49;74.86
55191;BME280;41070;50.360;18.742;2023-04-09T13:57:31;99406.10;;;11.55;74.76
55191;BME280;41070;50.360;18.742;2023-04-09T13:59:57;99414.03;;;11.65;74.31
55191;BME280;41070;50.360;18.742;2023-04-09T14:02:28;99411.38;;;11.66;73.83
55191;BME280;41070;50.360;18.742;2023-04-09T14:05:07;99408.80;;;11.66;72.89
55191;BME280;41070;50.360;18.742;2023-04-09T14:07:35;99409.13;;;11.67;72.29
55191;BME280;41070;50.360;18.742;2023-04-09T14:10:01;99404.22;;;11.67;72.36
55191;BME280;41070;50.360;18.742;2023-04-09T14:12:29;99404.11;;;11.53;72.13
55191;BME280;41070;50.360;18.742;2023-04-09T14:14:58;99403.14;;;11.52;73.07
55191;BME280;41070;50.360;18.742;2023-04-09T14:17:25;99402.98;;;11.58;72.56
55191;BME280;41070;50.360;18.742;2023-04-09T14:19:51;99398.25;;;11.56;72.70
55191;BME280;41070;50.360;18.742;2023-04-09T14:22:18;99394.32;;;11.54;71.93
55191;BME280;41070;50.360;18.742;2023-04-09T14:24:48;99394.63;;;11.58;72.52
55191;BME280;41070;50.360;18.742;2023-04-09T14:27:15;99394.66;;;11.70;73.22
55191;BME280;41070;50.360;18.742;2023-04-09T14:29:43;99393.58;;;11.74;73.34
55191;BME280;41070;50.360;18.742;2023-04-09T14:32:23;99389.64;;;11.76;72.89
55191;BME280;41070;50.360;18.742;2023-04-09T14:34:50;99392.52;;;11.64;72.81
55191;BME280;41070;50.360;18.742;2023-04-09T14:37:20;99391.88;;;11.45;72.88
55191;BME280;41070;50.360;18.742;2023-04-09T14:39:49;99391.85;;;11.29;73.18
55191;BME280;41070;50.360;18.742;2023-04-09T14:42:16;99391.52;;;11.14;73.51
55191;BME280;41070;50.360;18.742;2023-04-09T14:44:44;99397.27;;;11.00;73.75
55191;BME280;41070;50.360;18.742;2023-04-09T14:47:16;99404.34;;;10.89;74.26
55191;BME280;41070;50.360;18.742;2023-04-09T14:49:42;99403.81;;;10.77;74.33
55191;BME280;41070;50.360;18.742;2023-04-09T14:52:08;99400.79;;;10.68;74.64
55191;BME280;41070;50.360;18.742;2023-04-09T14:54:35;99404.55;;;10.62;75.19
55191;BME280;41070;50.360;18.742;2023-04-09T14:57:02;99401.89;;;10.60;75.43
55191;BME280;41070;50.360;18.742;2023-04-09T14:59:29;99402.46;;;10.63;75.42
55191;BME280;41070;50.360;18.742;2023-04-09T15:02:10;99404.30;;;10.66;75.19
55191;BME280;41070;50.360;18.742;2023-04-09T15:04:37;99403.44;;;10.63;75.00
55191;BME280;41070;50.360;18.742;2023-04-09T15:07:04;99404.95;;;10.58;75.02
55191;BME280;41070;50.360;18.742;2023-04-09T15:09:31;99405.27;;;10.49;75.08
55191;BME280;41070;50.360;18.742;2023-04-09T15:11:58;99410.21;;;10.39;75.40
55191;BME280;41070;50.360;18.742;2023-04-09T15:14:26;99423.89;;;10.32;75.64
55191;BME280;41070;50.360;18.742;2023-04-09T15:16:53;99425.21;;;10.09;74.49
55191;BME280;41070;50.360;18.742;2023-04-09T15:19:20;99427.27;;;9.80;75.48
55191;BME280;41070;50.360;18.742;2023-04-09T15:21:46;99431.12;;;9.58;76.73
55191;BME280;41070;50.360;18.742;2023-04-09T15:24:18;99427.13;;;9.36;77.77
55191;BME280;41070;50.360;18.742;2023-04-09T15:26:47;99422.94;;;9.28;79.05
55191;BME280;41070;50.360;18.742;2023-04-09T15:29:32;99424.39;;;9.28;79.95
55191;BME280;41070;50.360;18.742;2023-04-09T15:31:59;99417.38;;;9.24;81.12
55191;BME280;41070;50.360;18.742;2023-04-09T15:34:25;99420.48;;;9.22;81.12
55191;BME280;41070;50.360;18.742;2023-04-09T15:36:51;99412.27;;;9.15;80.73
55191;BME280;41070;50.360;18.742;2023-04-09T15:39:18;99405.86;;;9.08;80.82
55191;BME280;41070;50.360;18.742;2023-04-09T15:41:44;99402.30;;;9.01;81.14
55191;BME280;41070;50.360;18.742;2023-04-09T15:44:10;99396.36;;;8.97;81.24
55191;BME280;41070;50.360;18.742;2023-04-09T15:47:02;99393.90;;;8.91;80.53
55191;BME280;41070;50.360;18.742;2023-04-09T15:49:28;99392.25;;;8.82;80.34
55191;BME280;41070;50.360;18.742;2023-04-09T15:51:57;99392.35;;;8.74;80.67
55191;BME280;41070;50.360;18.742;2023-04-09T15:54:39;99391.52;;;8.66;81.32
55191;BME280;41070;50.360;18.742;2023-04-09T15:57:17;99391.79;;;8.64;81.53
55191;BME280;41070;50.360;18.742;2023-04-09T15:59:52;99390.96;;;8.61;81.75
55191;BME280;41070;50.360;18.742;2023-04-09T16:02:31;99392.59;;;8.60;82.16
55191;BME280;41070;50.360;18.742;2023-04-09T16:05:12;99394.13;;;8.58;82.88
55191;BME280;41070;50.360;18.742;2023-04-09T16:08:05;99394.91;;;8.59;82.99
55191;BME280;41070;50.360;18.742;2023-04-09T16:10:32;99395.83;;;8.55;84.09
55191;BME280;41070;50.360;18.742;2023-04-09T16:16:15;99396.55;;;8.43;85.14
55191;BME280;41070;50.360;18.742;2023-04-09T16:19:12;99391.20;;;8.42;84.73
55191;BME280;41070;50.360;18.742;2023-04-09T16:22:26;99391.67;;;8.42;84.56
55191;BME280;41070;50.360;18.742;2023-04-09T16:24:54;99388.42;;;8.42;84.76
55191;BME280;41070;50.360;18.742;2023-04-09T16:31:16;99386.49;;;8.33;85.43
55191;BME280;41070;50.360;18.742;2023-04-09T16:33:42;99381.20;;;8.34;85.29
55191;BME280;41070;50.360;18.742;2023-04-09T16:36:41;99384.13;;;8.34;85.00
55191;BME280;41070;50.360;18.742;2023-04-09T16:39:48;99386.60;;;8.32;85.22
55191;BME280;41070;50.360;18.742;2023-04-09T16:42:29;99386.89;;;8.28;85.50
55191;BME280;41070;50.360;18.742;2023-04-09T16:45:04;99387.09;;;8.25;85.77
55191;BME280;41070;50.360;18.742;2023-04-09T16:47:45;99387.48;;;8.22;85.69
55191;BME280;41070;50.360;18.742;2023-04-09T16:50:17;99389.80;;;8.23;85.89
55191;BME280;41070;50.360;18.742;2023-04-09T16:53:32;99390.99;;;8.22;86.13
55191;BME280;41070;50.360;18.742;2023-04-09T16:56:23;99392.59;;;8.20;86.58
55191;BME280;41070;50.360;18.742;2023-04-09T16:59:31;99397.41;;;8.11;87.04
55191;BME280;41070;50.360;18.742;2023-04-09T17:05:09;99405.95;;;8.07;87.50
55191;BME280;41070;50.360;18.742;2023-04-09T17:08:26;99412.45;;;8.07;87.93
55191;BME280;41070;50.360;18.742;2023-04-09T17:11:13;99415.23;;;8.06;87.89
55191;BME280;41070;50.360;18.742;2023-04-09T17:14:44;99418.92;;;8.04;88.27
55191;BME280;41070;50.360;18.742;2023-04-09T17:24:45;99430.09;;;7.92;89.39
55191;BME280;41070;50.360;18.742;2023-04-09T17:27:11;99432.92;;;7.89;90.09
55191;BME280;41070;50.360;18.742;2023-04-09T17:30:05;99434.66;;;7.90;90.44
55191;BME280;41070;50.360;18.742;2023-04-09T17:32:40;99435.36;;;7.90;90.12
55191;BME280;41070;50.360;18.742;2023-04-09T17:35:16;99441.40;;;7.89;90.46
55191;BME280;41070;50.360;18.742;2023-04-09T18:01:22;99458.60;;;8.24;90.71
55191;BME280;41070;50.360;18.742;2023-04-09T18:04:10;99461.08;;;8.13;90.18
55191;BME280;41070;50.360;18.742;2023-04-09T18:07:19;99468.48;;;8.00;89.87
55191;BME280;41070;50.360;18.742;2023-04-09T18:10:13;99473.84;;;7.85;89.61
55191;BME280;41070;50.360;18.742;2023-04-09T18:12:47;99473.02;;;7.72;89.82
55191;BME280;41070;50.360;18.742;2023-04-09T18:18:47;99475.06;;;7.54;90.30
55191;BME280;41070;50.360;18.742;2023-04-09T18:21:46;99481.54;;;7.43;90.70
55191;BME280;41070;50.360;18.742;2023-04-09T18:27:51;99477.38;;;7.30;90.91
55191;BME280;41070;50.360;18.742;2023-04-09T18:30:26;99476.67;;;7.26;90.81
55191;BME280;41070;50.360;18.742;2023-04-09T18:33:15;99485.92;;;7.24;91.06
55191;BME280;41070;50.360;18.742;2023-04-09T18:35:42;99491.23;;;7.25;91.06
55191;BME280;41070;50.360;18.742;2023-04-09T18:38:08;99495.21;;;7.25;91.34
55191;BME280;41070;50.360;18.742;2023-04-09T18:40:41;99498.84;;;7.20;91.50
55191;BME280;41070;50.360;18.742;2023-04-09T18:43:07;99499.50;;;7.19;92.00
55191;BME280;41070;50.360;18.742;2023-04-09T18:45:34;99500.42;;;7.21;92.22
55191;BME280;41070;50.360;18.742;2023-04-09T18:48:04;99495.63;;;7.23;92.32
55191;BME280;41070;50.360;18.742;2023-04-09T18:50:31;99491.08;;;7.25;92.30
55191;BME280;41070;50.360;18.742;2023-04-09T18:52:58;99497.70;;;7.26;92.13
55191;BME280;41070;50.360;18.742;2023-04-09T18:55:24;99493.06;;;7.24;92.34
55191;BME280;41070;50.360;18.742;2023-04-09T18:57:51;99493.52;;;7.25;92.61
55191;BME280;41070;50.360;18.742;2023-04-09T19:00:17;99499.13;;;7.27;92.58
55191;BME280;41070;50.360;18.742;2023-04-09T19:02:44;99498.14;;;7.30;92.41
55191;BME280;41070;50.360;18.742;2023-04-09T19:05:10;99492.29;;;7.33;91.95
55191;BME280;41070;50.360;18.742;2023-04-09T19:07:37;99489.22;;;7.34;92.11
55191;BME280;41070;50.360;18.742;2023-04-09T19:10:04;99482.99;;;7.37;92.39
55191;BME280;41070;50.360;18.742;2023-04-09T19:12:32;99487.59;;;7.39;92.16
55191;BME280;41070;50.360;18.742;2023-04-09T19:15:19;99487.25;;;7.35;92.62
55191;BME280;41070;50.360;18.742;2023-04-09T19:17:47;99490.65;;;7.33;93.05
55191;BME280;41070;50.360;18.742;2023-04-09T19:20:23;99485.14;;;7.31;93.10
55191;BME280;41070;50.360;18.742;2023-04-09T19:22:59;99492.88;;;7.30;92.59
55191;BME280;41070;50.360;18.742;2023-04-09T19:25:30;99496.76;;;7.23;93.02
55191;BME280;41070;50.360;18.742;2023-04-09T19:27:58;99503.45;;;7.18;92.97
55191;BME280;41070;50.360;18.742;2023-04-09T19:30:24;99507.27;;;7.14;93.48
55191;BME280;41070;50.360;18.742;2023-04-09T19:32:51;99505.52;;;7.14;93.61
55191;BME280;41070;50.360;18.742;2023-04-09T19:35:17;99509.80;;;7.13;93.81
55191;BME280;41070;50.360;18.742;2023-04-09T19:37:43;99508.89;;;7.11;94.38
55191;BME280;41070;50.360;18.742;2023-04-09T19:40:10;99510.69;;;7.12;93.96
55191;BME280;41070;50.360;18.742;2023-04-09T19:42:37;99512.83;;;7.12;93.58
55191;BME280;41070;50.360;18.742;2023-04-09T19:45:03;99513.83;;;7.13;93.87
55191;BME280;41070;50.360;18.742;2023-04-09T19:47:30;99510.58;;;7.13;93.93
55191;BME280;41070;50.360;18.742;2023-04-09T19:50:00;99516.21;;;7.14;94.18
55191;BME280;41070;50.360;18.742;2023-04-09T19:52:26;99515.67;;;7.14;94.22
55191;BME280;41070;50.360;18.742;2023-04-09T19:54:53;99518.33;;;7.14;94.47
55191;BME280;41070;50.360;18.742;2023-04-09T19:57:20;99520.31;;;7.13;94.47
55191;BME280;41070;50.360;18.742;2023-04-09T19:59:46;99522.34;;;7.14;94.51
55191;BME280;41070;50.360;18.742;2023-04-09T20:02:13;99526.45;;;7.15;94.91
55191;BME280;41070;50.360;18.742;2023-04-09T20:04:40;99527.57;;;7.18;94.58
55191;BME280;41070;50.360;18.742;2023-04-09T20:07:06;99528.54;;;7.17;94.64
55191;BME280;41070;50.360;18.742;2023-04-09T20:09:33;99527.88;;;7.16;94.56
55191;BME280;41070;50.360;18.742;2023-04-09T20:12:00;99529.11;;;7.15;94.66
55191;BME280;41070;50.360;18.742;2023-04-09T20:14:30;99530.39;;;7.15;94.51
55191;BME280;41070;50.360;18.742;2023-04-09T20:16:57;99526.20;;;7.12;94.27
55191;BME280;41070;50.360;18.742;2023-04-09T20:19:24;99525.19;;;7.09;94.29
55191;BME280;41070;50.360;18.742;2023-04-09T20:22:03;99520.47;;;7.02;94.18
55191;BME280;41070;50.360;18.742;2023-04-09T20:31:46;99527.17;;;6.82;94.20
55191;BME280;41070;50.360;18.742;2023-04-09T20:34:22;99530.15;;;6.77;94.05
55191;BME280;41070;50.360;18.742;2023-04-09T20:40:47;99531.04;;;6.65;94.68
55191;BME280;41070;50.360;18.742;2023-04-09T20:43:16;99532.89;;;6.63;94.64
55191;BME280;41070;50.360;18.742;2023-04-09T20:45:42;99532.79;;;6.60;94.75
55191;BME280;41070;50.360;18.742;2023-04-09T20:48:08;99535.17;;;6.57;94.89
55191;BME280;41070;50.360;18.742;2023-04-09T20:50:35;99535.48;;;6.57;95.08
55191;BME280;41070;50.360;18.742;2023-04-09T20:53:01;99536.98;;;6.58;95.15
55191;BME280;41070;50.360;18.742;2023-04-09T20:55:28;99535.08;;;6.56;95.04
55191;BME280;41070;50.360;18.742;2023-04-09T20:57:54;99535.21;;;6.57;95.38
55191;BME280;41070;50.360;18.742;2023-04-09T21:00:22;99535.79;;;6.58;95.50
55191;BME280;41070;50.360;18.742;2023-04-09T21:02:48;99536.18;;;6.57;95.42
55191;BME280;41070;50.360;18.742;2023-04-09T21:05:14;99536.22;;;6.55;95.28
55191;BME280;41070;50.360;18.742;2023-04-09T21:07:41;99535.48;;;6.51;95.37
55191;BME280;41070;50.360;18.742;2023-04-09T21:10:07;99534.71;;;6.50;95.81
55191;BME280;41070;50.360;18.742;2023-04-09T21:12:34;99535.74;;;6.51;95.94
55191;BME280;41070;50.360;18.742;2023-04-09T21:15:00;99536.97;;;6.51;96.42
55191;BME280;41070;50.360;18.742;2023-04-09T21:17:26;99533.96;;;6.50;96.29
55191;BME280;41070;50.360;18.742;2023-04-09T21:19:52;99535.11;;;6.51;96.17
55191;BME280;41070;50.360;18.742;2023-04-09T21:22:21;99533.74;;;6.50;96.49
55191;BME280;41070;50.360;18.742;2023-04-09T21:24:54;99534.13;;;6.49;96.71
55191;BME280;41070;50.360;18.742;2023-04-09T21:27:21;99537.26;;;6.50;96.50
55191;BME280;41070;50.360;18.742;2023-04-09T21:29:48;99537.29;;;6.51;96.26
55191;BME280;41070;50.360;18.742;2023-04-09T21:32:14;99539.66;;;6.53;96.31
55191;BME280;41070;50.360;18.742;2023-04-09T21:34:42;99538.35;;;6.54;96.19
55191;BME280;41070;50.360;18.742;2023-04-09T21:37:08;99541.63;;;6.56;96.25
55191;BME280;41070;50.360;18.742;2023-04-09T21:39:34;99536.81;;;6.55;96.49
55191;BME280;41070;50.360;18.742;2023-04-09T21:42:00;99537.49;;;6.55;96.28
55191;BME280;41070;50.360;18.742;2023-04-09T21:44:27;99536.26;;;6.56;96.13
55191;BME280;41070;50.360;18.742;2023-04-09T21:46:53;99539.77;;;6.56;96.22
55191;BME280;41070;50.360;18.742;2023-04-09T21:49:19;99538.77;;;6.57;96.11
55191;BME280;41070;50.360;18.742;2023-04-09T21:51:46;99541.80;;;6.58;96.40
55191;BME280;41070;50.360;18.742;2023-04-09T21:54:12;99537.14;;;6.57;96.48
55191;BME280;41070;50.360;18.742;2023-04-09T21:56:38;99542.49;;;6.52;96.56
55191;BME280;41070;50.360;18.742;2023-04-09T21:59:04;99543.05;;;6.49;96.73
55191;BME280;41070;50.360;18.742;2023-04-09T22:01:31;99543.80;;;6.48;96.90
55191;BME280;41070;50.360;18.742;2023-04-09T22:03:59;99539.48;;;6.47;96.96
55191;BME280;41070;50.360;18.742;2023-04-09T22:06:27;99540.83;;;6.46;96.87
55191;BME280;41070;50.360;18.742;2023-04-09T22:08:54;99541.22;;;6.44;97.04
55191;BME280;41070;50.360;18.742;2023-04-09T22:11:24;99543.54;;;6.40;97.57
55191;BME280;41070;50.360;18.742;2023-04-09T22:13:51;99543.04;;;6.35;97.65
55191;BME280;41070;50.360;18.742;2023-04-09T22:16:17;99542.29;;;6.31;97.61
55191;BME280;41070;50.360;18.742;2023-04-09T22:18:44;99541.84;;;6.29;97.85
55191;BME280;41070;50.360;18.742;2023-04-09T22:21:14;99541.02;;;6.26;97.79
55191;BME280;41070;50.360;18.742;2023-04-09T22:23:41;99540.55;;;6.27;97.74
55191;BME280;41070;50.360;18.742;2023-04-09T22:26:07;99543.66;;;6.28;97.80
55191;BME280;41070;50.360;18.742;2023-04-09T22:28:34;99540.52;;;6.28;98.11
55191;BME280;41070;50.360;18.742;2023-04-09T22:31:00;99540.46;;;6.26;97.99
55191;BME280;41070;50.360;18.742;2023-04-09T22:33:28;99542.70;;;6.22;98.17
55191;BME280;41070;50.360;18.742;2023-04-09T22:35:54;99541.89;;;6.20;98.14
55191;BME280;41070;50.360;18.742;2023-04-09T22:38:20;99538.70;;;6.20;98.11
55191;BME280;41070;50.360;18.742;2023-04-09T22:40:47;99536.82;;;6.18;98.39
55191;BME280;41070;50.360;18.742;2023-04-09T22:43:14;99537.80;;;6.17;98.55
55191;BME280;41070;50.360;18.742;2023-04-09T22:45:40;99535.91;;;6.18;98.24
55191;BME280;41070;50.360;18.742;2023-04-09T22:48:07;99540.02;;;6.20;98.37
55191;BME280;41070;50.360;18.742;2023-04-09T22:50:33;99539.06;;;6.20;98.16
55191;BME280;41070;50.360;18.742;2023-04-09T22:53:00;99535.36;;;6.19;98.11
55191;BME280;41070;50.360;18.742;2023-04-09T22:55:26;99532.97;;;6.19;98.42
55191;BME280;41070;50.360;18.742;2023-04-09T22:57:52;99533.83;;;6.19;98.22
55191;BME280;41070;50.360;18.742;2023-04-09T23:00:19;99532.34;;;6.18;98.24
55191;BME280;41070;50.360;18.742;2023-04-09T23:02:45;99534.02;;;6.16;98.42
55191;BME280;41070;50.360;18.742;2023-04-09T23:05:12;99532.87;;;6.16;98.72
55191;BME280;41070;50.360;18.742;2023-04-09T23:07:38;99533.05;;;6.15;98.62
55191;BME280;41070;50.360;18.742;2023-04-09T23:10:05;99527.49;;;6.13;98.84
55191;BME280;41070;50.360;18.742;2023-04-09T23:12:32;99526.41;;;6.14;98.67
55191;BME280;41070;50.360;18.742;2023-04-09T23:14:58;99527.89;;;6.18;98.88
55191;BME280;41070;50.360;18.742;2023-04-09T23:17:24;99528.15;;;6.21;98.70